createdAt,value
2022-08-27T00:02:17.088Z,20.94
2022-08-27T00:05:05.009Z,20.90
2022-08-27T00:07:52.262Z,20.86
2022-08-27T00:10:41.425Z,20.80
2022-08-27T00:13:28.721Z,20.85
2022-08-27T00:16:17.653Z,20.76
2022-08-27T00:19:05.077Z,20.74
2022-08-27T00:21:52.342Z,20.72
2022-08-27T00:24:48.577Z,20.75
2022-08-27T00:27:36.716Z,20.60
2022-08-27T00:30:24.099Z,20.56
2022-08-27T00:33:11.544Z,20.39
2022-08-27T00:35:59.374Z,20.41
2022-08-27T00:38:46.609Z,20.46
2022-08-27T00:41:34.526Z,20.39
2022-08-27T00:44:21.782Z,20.33
2022-08-27T00:47:17.005Z,20.25
2022-08-27T00:50:08.852Z,20.42
2022-08-27T00:53:01.906Z,20.53
2022-08-27T00:55:55.183Z,20.50
2022-08-27T00:58:46.351Z,20.54
2022-08-27T01:01:35.898Z,20.32
2022-08-27T01:04:23.428Z,20.18
2022-08-27T01:07:11.109Z,20.25
2022-08-27T01:10:01.014Z,20.28
2022-08-27T01:12:53.416Z,20.27
2022-08-27T01:15:41.921Z,20.27
2022-08-27T01:18:33.441Z,20.28
2022-08-27T01:21:34.381Z,20.34
2022-08-27T01:24:35.728Z,20.12
2022-08-27T01:27:26.679Z,20.10
2022-08-27T01:30:18.097Z,20.03
2022-08-27T01:33:17.090Z,19.91
2022-08-27T01:36:08.073Z,20.07
2022-08-27T01:38:55.841Z,19.99
2022-08-27T01:41:44.720Z,19.93
2022-08-27T01:44:42.750Z,19.96
2022-08-27T01:47:30.692Z,20.00
2022-08-27T01:50:25.641Z,19.91
2022-08-27T01:53:16.363Z,19.93
2022-08-27T01:56:05.461Z,19.82
2022-08-27T01:58:52.732Z,19.71
2022-08-27T02:01:40.031Z,19.63
2022-08-27T02:04:27.445Z,19.58
2022-08-27T02:07:14.700Z,19.60
2022-08-27T02:10:02.063Z,19.64
2022-08-27T02:12:49.618Z,19.59
2022-08-27T02:15:37.938Z,19.70
2022-08-27T02:18:25.235Z,19.72
2022-08-27T02:21:12.820Z,19.77
2022-08-27T02:24:00.144Z,19.82
2022-08-27T02:26:47.421Z,19.82
2022-08-27T02:29:34.889Z,19.69
2022-08-27T02:32:26.983Z,19.63
2022-08-27T02:35:22.021Z,19.58
2022-08-27T02:38:09.863Z,19.56
2022-08-27T02:40:57.114Z,19.48
2022-08-27T02:43:45.564Z,19.67
2022-08-27T02:46:33.321Z,19.71
2022-08-27T02:49:20.721Z,19.63
2022-08-27T02:52:08.179Z,19.56
2022-08-27T02:54:56.464Z,19.44
2022-08-27T02:57:43.940Z,19.54
2022-08-27T03:00:31.266Z,19.48
2022-08-27T03:03:18.616Z,19.35
2022-08-27T03:06:05.926Z,19.39
2022-08-27T03:08:53.662Z,19.57
2022-08-27T03:11:41.988Z,19.54
2022-08-27T03:14:29.484Z,19.61
2022-08-27T03:17:35.391Z,19.65
2022-08-27T03:20:24.219Z,19.58
2022-08-27T03:23:12.567Z,19.62
2022-08-27T03:26:02.617Z,19.75
2022-08-27T03:28:49.959Z,19.72
2022-08-27T03:31:37.670Z,19.70
2022-08-27T03:34:24.962Z,19.78
2022-08-27T03:37:12.273Z,19.62
2022-08-27T03:39:59.571Z,19.61
2022-08-27T03:42:46.854Z,19.60
2022-08-27T03:46:00.404Z,19.72
2022-08-27T03:48:41.468Z,19.64
2022-08-27T03:51:28.706Z,19.64
2022-08-27T03:54:16.128Z,19.62
2022-08-27T03:57:04.245Z,19.55
2022-08-27T03:59:53.038Z,19.57
2022-08-27T04:02:42.905Z,19.60
2022-08-27T04:05:30.220Z,19.54
2022-08-27T04:08:17.493Z,19.59
2022-08-27T04:11:06.745Z,19.64
2022-08-27T04:13:53.998Z,19.68
2022-08-27T04:16:41.516Z,19.69
2022-08-27T04:19:32.212Z,19.70
2022-08-27T04:22:20.874Z,19.66
2022-08-27T04:25:10.459Z,19.68
2022-08-27T04:27:59.192Z,19.68
2022-08-27T04:30:47.142Z,19.69
2022-08-27T04:33:34.604Z,19.60
2022-08-27T04:36:21.927Z,19.61
2022-08-27T04:39:09.178Z,19.57
2022-08-27T04:41:59.256Z,19.50
2022-08-27T04:44:47.162Z,19.50
2022-08-27T04:47:35.127Z,19.51
2022-08-27T04:50:22.362Z,19.52
2022-08-27T04:53:13.544Z,19.53
2022-08-27T04:56:00.768Z,19.54
2022-08-27T04:58:49.262Z,19.42
2022-08-27T05:01:37.869Z,19.51
2022-08-27T05:04:26.696Z,19.52
2022-08-27T05:07:14.069Z,19.48
2022-08-27T05:10:01.331Z,19.39
2022-08-27T05:12:50.107Z,19.48
2022-08-27T05:15:38.389Z,19.44
2022-08-27T05:18:25.989Z,19.49
2022-08-27T05:21:33.701Z,19.47
2022-08-27T05:24:21.958Z,19.29
2022-08-27T05:27:09.888Z,19.24
2022-08-27T05:30:00.256Z,19.31
2022-08-27T05:32:47.577Z,19.47
2022-08-27T05:35:42.591Z,19.45
2022-08-27T05:38:30.637Z,19.43
2022-08-27T05:41:21.201Z,19.40
2022-08-27T05:44:36.726Z,19.32
2022-08-27T05:47:17.232Z,19.33
2022-08-27T05:50:05.794Z,19.36
2022-08-27T05:52:53.686Z,19.33
2022-08-27T05:55:45.278Z,19.24
2022-08-27T05:58:51.141Z,19.09
2022-08-27T06:01:45.637Z,19.10
2022-08-27T06:04:33.052Z,19.07
2022-08-27T06:07:20.545Z,18.99
2022-08-27T06:10:08.729Z,18.95
2022-08-27T06:12:57.150Z,18.92
2022-08-27T06:15:44.562Z,18.83
2022-08-27T06:18:36.509Z,18.91
2022-08-27T06:21:24.956Z,18.95
2022-08-27T06:24:13.338Z,18.81
2022-08-27T06:27:00.597Z,18.71
2022-08-27T06:29:47.893Z,18.77
2022-08-27T06:32:35.133Z,18.88
2022-08-27T06:35:22.425Z,18.89
2022-08-27T06:38:09.795Z,19.00
2022-08-27T06:40:58.150Z,19.08
2022-08-27T06:43:45.794Z,18.95
2022-08-27T06:46:33.160Z,18.93
2022-08-27T06:49:20.460Z,18.70
2022-08-27T06:52:07.887Z,18.66
2022-08-27T06:54:56.627Z,18.67
2022-08-27T06:57:43.878Z,18.68
2022-08-27T07:00:31.156Z,18.69
2022-08-27T07:03:18.493Z,18.64
2022-08-27T07:06:06.456Z,18.57
2022-08-27T07:08:54.109Z,18.37
2022-08-27T07:11:41.405Z,18.50
2022-08-27T07:14:32.972Z,18.48
2022-08-27T07:17:24.311Z,18.40
2022-08-27T07:20:13.343Z,18.56
2022-08-27T07:23:00.606Z,18.44
2022-08-27T07:25:48.312Z,18.61
2022-08-27T07:28:36.412Z,18.68
2022-08-27T07:31:24.265Z,18.83
2022-08-27T07:34:11.548Z,18.79
2022-08-27T07:36:58.831Z,18.67
2022-08-27T07:39:46.125Z,18.57
2022-08-27T07:42:51.981Z,18.50
2022-08-27T07:45:48.145Z,18.62
2022-08-27T07:48:36.482Z,18.73
2022-08-27T07:51:28.260Z,18.71
2022-08-27T07:54:16.383Z,18.85
2022-08-27T07:57:04.377Z,18.94
2022-08-27T07:59:53.136Z,19.00
2022-08-27T08:02:42.144Z,19.08
2022-08-27T08:05:36.780Z,19.11
2022-08-27T08:08:24.950Z,18.99
2022-08-27T08:11:16.639Z,19.04
2022-08-27T08:14:03.933Z,19.02
2022-08-27T08:19:19.820Z,19.06
2022-08-27T08:22:08.468Z,19.13
2022-08-27T08:24:55.868Z,18.91
2022-08-27T08:27:43.616Z,18.88
2022-08-27T08:30:33.154Z,18.95
2022-08-27T08:33:23.557Z,18.59
2022-08-27T08:36:13.573Z,18.68
2022-08-27T08:39:00.969Z,18.89
2022-08-27T08:41:55.400Z,18.93
2022-08-27T08:44:49.456Z,18.86
2022-08-27T08:47:45.605Z,18.92
2022-08-27T08:50:53.999Z,18.94
2022-08-27T08:53:47.578Z,19.06
2022-08-27T08:57:07.900Z,19.17
2022-08-27T09:00:09.473Z,19.17
2022-08-27T09:02:57.292Z,19.29
2022-08-27T09:05:54.630Z,19.38
2022-08-27T09:08:43.523Z,19.44
2022-08-27T09:11:44.372Z,19.37
2022-08-27T09:14:41.205Z,19.50
2022-08-27T09:17:34.646Z,19.60
2022-08-27T09:20:25.644Z,19.67
2022-08-27T09:23:16.272Z,19.72
2022-08-27T09:26:03.603Z,19.66
2022-08-27T09:29:18.475Z,19.67
2022-08-27T09:32:09.245Z,19.59
2022-08-27T09:35:01.496Z,19.45
2022-08-27T09:37:53.090Z,19.43
2022-08-27T09:40:48.864Z,19.49
2022-08-27T09:43:36.908Z,19.39
2022-08-27T09:46:26.953Z,19.42
2022-08-27T09:49:16.389Z,19.66
2022-08-27T09:52:04.289Z,19.76
2022-08-27T09:54:55.598Z,19.68
2022-08-27T09:57:43.005Z,19.86
2022-08-27T10:00:39.634Z,19.88
2022-08-27T10:03:31.365Z,20.06
2022-08-27T10:06:32.541Z,20.17
2022-08-27T10:09:32.993Z,20.23
2022-08-27T10:12:55.328Z,20.45
2022-08-27T10:15:57.441Z,20.72
2022-08-27T10:19:22.377Z,20.73
2022-08-27T10:23:07.108Z,20.55
2022-08-27T10:26:16.951Z,20.71
2022-08-27T10:29:19.578Z,20.58
2022-08-27T10:32:31.186Z,20.71
2022-08-27T10:35:32.131Z,20.77
2022-08-27T10:38:31.369Z,20.89
2022-08-27T10:41:35.243Z,21.04
2022-08-27T10:45:02.441Z,21.16
2022-08-27T10:48:10.959Z,21.07
2022-08-27T10:50:58.359Z,21.23
2022-08-27T10:53:59.788Z,21.19
2022-08-27T10:57:31.747Z,21.08
2022-08-27T11:00:23.130Z,20.84
2022-08-27T11:03:42.015Z,20.79
2022-08-27T11:06:54.369Z,20.96
2022-08-27T11:10:18.472Z,21.20
2022-08-27T11:13:14.658Z,21.43
2022-08-27T11:16:11.624Z,21.30
2022-08-27T11:19:05.903Z,21.37
2022-08-27T11:22:01.246Z,21.32
2022-08-27T11:25:10.013Z,21.35
2022-08-27T11:27:59.095Z,21.36
2022-08-27T11:31:04.204Z,21.38
2022-08-27T11:34:12.814Z,21.28
2022-08-27T11:37:37.857Z,21.29
2022-08-27T11:40:49.285Z,21.26
2022-08-27T11:43:37.530Z,21.40
2022-08-27T11:46:27.781Z,21.56
2022-08-27T11:49:29.761Z,21.55
2022-08-27T11:52:26.075Z,21.75
2022-08-27T11:55:19.371Z,21.58
2022-08-27T11:58:08.354Z,21.70
2022-08-27T12:00:55.951Z,21.75
2022-08-27T12:03:43.490Z,21.63
2022-08-27T12:06:41.762Z,21.78
2022-08-27T12:09:29.666Z,21.68
2022-08-27T12:12:49.146Z,21.82
2022-08-27T12:15:48.374Z,21.88
2022-08-27T12:18:42.612Z,21.82
2022-08-27T12:21:51.394Z,21.74
2022-08-27T12:24:58.676Z,21.73
2022-08-27T12:27:55.449Z,21.53
2022-08-27T12:30:50.415Z,21.68
2022-08-27T12:33:44.853Z,21.89
2022-08-27T12:36:34.802Z,21.76
2022-08-27T12:39:29.589Z,21.80
2022-08-27T12:42:19.802Z,21.93
2022-08-27T12:45:07.571Z,22.09
2022-08-27T12:47:55.662Z,22.03
2022-08-27T12:50:42.985Z,22.11
2022-08-27T12:53:32.880Z,22.19
2022-08-27T12:56:37.880Z,22.17
2022-08-27T12:59:43.137Z,22.23
2022-08-27T13:03:16.133Z,21.88
2022-08-27T13:06:26.998Z,22.05
2022-08-27T13:09:14.278Z,22.14
2022-08-27T13:12:05.493Z,22.22
2022-08-27T13:14:56.965Z,22.20
2022-08-27T13:17:46.512Z,22.19
2022-08-27T13:20:37.612Z,22.36
2022-08-27T13:23:27.154Z,22.19
2022-08-27T13:26:14.396Z,22.42
2022-08-27T13:29:03.912Z,22.43
2022-08-27T13:31:51.817Z,22.26
2022-08-27T13:34:40.932Z,22.21
2022-08-27T13:37:44.712Z,22.30
2022-08-27T13:40:35.194Z,22.23
2022-08-27T13:43:33.155Z,22.39
2022-08-27T13:46:24.115Z,22.36
2022-08-27T13:49:17.596Z,22.32
2022-08-27T13:52:36.967Z,22.38
2022-08-27T13:55:24.222Z,22.46
2022-08-27T13:58:14.941Z,22.51
2022-08-27T14:01:14.209Z,22.52
2022-08-27T14:04:07.761Z,22.46
2022-08-27T14:06:55.212Z,22.33
2022-08-27T14:09:54.263Z,22.49
2022-08-27T14:12:42.299Z,22.62
2022-08-27T14:15:38.359Z,22.65
2022-08-27T14:18:54.970Z,22.70
2022-08-27T14:21:40.870Z,22.70
2022-08-27T14:24:31.182Z,22.78
2022-08-27T14:27:20.035Z,22.78
2022-08-27T14:30:09.585Z,22.72
2022-08-27T14:33:01.873Z,22.68
2022-08-27T14:35:49.236Z,22.67
2022-08-27T14:38:40.825Z,22.67
2022-08-27T14:41:28.333Z,22.67
2022-08-27T14:44:15.569Z,22.66
2022-08-27T14:47:09.682Z,22.74
2022-08-27T14:49:57.770Z,22.76
2022-08-27T14:52:45.093Z,22.76
2022-08-27T14:55:32.374Z,22.74
2022-08-27T14:58:20.298Z,22.83
2022-08-27T15:01:08.071Z,22.57
2022-08-27T15:03:57.344Z,22.66
2022-08-27T15:06:44.801Z,22.76
2022-08-27T15:09:32.281Z,22.82
2022-08-27T15:12:26.410Z,22.81
2022-08-27T15:15:14.933Z,22.77
2022-08-27T15:18:02.177Z,22.81
2022-08-27T15:20:49.933Z,22.79
2022-08-27T15:23:37.641Z,22.76
2022-08-27T15:26:25.006Z,22.84
2022-08-27T15:29:12.721Z,22.89
2022-08-27T15:32:00.058Z,22.94
2022-08-27T15:34:47.353Z,22.91
2022-08-27T15:37:35.226Z,22.89
2022-08-27T15:40:24.036Z,22.84
2022-08-27T15:43:12.594Z,22.77
2022-08-27T15:45:59.868Z,22.71
2022-08-27T15:48:47.190Z,22.62
2022-08-27T15:51:35.053Z,22.58
2022-08-27T15:54:22.339Z,22.54
2022-08-27T15:57:10.024Z,22.53
2022-08-27T15:59:57.617Z,22.51
2022-08-27T16:02:46.191Z,22.47
2022-08-27T16:05:36.678Z,22.51
2022-08-27T16:08:24.264Z,22.52
2022-08-27T16:11:11.686Z,22.48
2022-08-27T16:13:58.994Z,22.42
2022-08-27T16:16:47.269Z,22.44
2022-08-27T16:19:41.225Z,22.49
2022-08-27T16:22:28.664Z,22.45
2022-08-27T16:25:18.608Z,22.50
2022-08-27T16:28:08.004Z,22.48
2022-08-27T16:30:56.691Z,22.45
2022-08-27T16:33:44.157Z,22.42
2022-08-27T16:36:31.519Z,22.50
2022-08-27T16:39:18.777Z,22.45
2022-08-27T16:42:10.072Z,22.34
2022-08-27T16:44:57.536Z,22.26
2022-08-27T16:48:03.216Z,22.24
2022-08-27T16:50:50.560Z,22.08
2022-08-27T16:53:41.219Z,22.12
2022-08-27T16:56:28.792Z,22.16
2022-08-27T16:59:16.124Z,22.08
2022-08-27T17:02:03.980Z,22.10
2022-08-27T17:05:07.369Z,22.10
2022-08-27T17:07:59.369Z,22.06
2022-08-27T17:10:51.322Z,22.03
2022-08-27T17:13:39.620Z,22.00
2022-08-27T17:16:32.540Z,21.97
2022-08-27T17:19:21.916Z,21.97
2022-08-27T17:22:09.415Z,21.88
2022-08-27T17:24:56.665Z,21.86
2022-08-27T17:27:43.944Z,21.88
2022-08-27T17:30:31.874Z,21.89
2022-08-27T17:33:36.045Z,21.86
2022-08-27T17:36:23.918Z,21.86
2022-08-27T17:39:14.560Z,21.84
2022-08-27T17:42:01.893Z,21.84
2022-08-27T17:44:49.285Z,21.85
2022-08-27T17:47:36.525Z,21.82
2022-08-27T17:50:23.838Z,21.86
2022-08-27T17:53:11.393Z,21.85
2022-08-27T17:55:58.744Z,21.76
2022-08-27T17:58:47.121Z,21.71
2022-08-27T18:01:39.953Z,21.69
2022-08-27T18:04:27.290Z,21.63
2022-08-27T18:07:15.338Z,21.52
2022-08-27T18:10:03.120Z,21.54
2022-08-27T18:12:52.409Z,21.53
2022-08-27T18:15:42.760Z,21.50
2022-08-27T18:18:30.479Z,21.47
2022-08-27T18:21:25.467Z,21.43
2022-08-27T18:24:14.005Z,21.47
2022-08-27T18:27:01.481Z,21.40
2022-08-27T18:29:49.880Z,21.39
2022-08-27T18:32:41.029Z,21.36
2022-08-27T18:35:30.849Z,21.33
2022-08-27T18:38:18.416Z,21.30
2022-08-27T18:41:06.421Z,21.34
2022-08-27T18:43:56.083Z,21.35
2022-08-27T18:46:43.441Z,21.36
2022-08-27T18:49:30.719Z,21.29
2022-08-27T18:52:21.745Z,21.31
2022-08-27T18:55:12.131Z,21.28
2022-08-27T18:57:59.519Z,21.25
2022-08-27T19:00:51.262Z,21.24
2022-08-27T19:03:43.931Z,21.33
2022-08-27T19:06:31.530Z,21.47
2022-08-27T19:09:19.088Z,21.43
2022-08-27T19:12:06.625Z,21.37
2022-08-27T19:14:53.933Z,21.33
2022-08-27T19:17:43.672Z,21.29
2022-08-27T19:20:31.409Z,21.33
2022-08-27T19:23:22.314Z,21.29
2022-08-27T19:26:24.534Z,21.24
2022-08-27T19:29:12.180Z,21.30
2022-08-27T19:31:59.537Z,21.26
2022-08-27T19:34:47.618Z,21.26
2022-08-27T19:37:39.673Z,21.25
2022-08-27T19:40:28.864Z,21.22
2022-08-27T19:43:16.136Z,21.16
2022-08-27T19:46:05.143Z,21.16
2022-08-27T19:48:55.443Z,21.15
2022-08-27T19:51:42.788Z,21.14
2022-08-27T19:54:33.745Z,21.17
2022-08-27T19:57:21.378Z,21.17
2022-08-27T20:00:11.359Z,21.14
2022-08-27T20:02:58.641Z,21.19
2022-08-27T20:05:49.670Z,21.17
2022-08-27T20:08:36.973Z,21.07
2022-08-27T20:11:24.508Z,21.11
2022-08-27T20:14:12.790Z,21.12
2022-08-27T20:17:00.173Z,21.12
2022-08-27T20:19:47.451Z,21.12
2022-08-27T20:22:37.188Z,21.08
2022-08-27T20:25:24.937Z,21.05
2022-08-27T20:28:37.753Z,21.05
2022-08-27T20:31:19.863Z,21.07
2022-08-27T20:34:07.380Z,21.03
2022-08-27T20:36:54.748Z,21.05
2022-08-27T20:39:43.404Z,21.01
2022-08-27T20:42:30.722Z,21.04
2022-08-27T20:45:18.948Z,21.01
2022-08-27T20:48:06.381Z,20.97
2022-08-27T20:50:53.771Z,20.97
2022-08-27T20:53:41.030Z,20.96
2022-08-27T20:56:28.505Z,21.00
2022-08-27T20:59:34.564Z,21.06
2022-08-27T21:02:28.101Z,21.09
2022-08-27T21:05:17.516Z,21.05
2022-08-27T21:08:06.259Z,21.02
2022-08-27T21:10:56.751Z,21.06
2022-08-27T21:13:55.636Z,21.09
2022-08-27T21:16:43.652Z,21.10
2022-08-27T21:19:31.298Z,21.09
2022-08-27T21:22:19.146Z,21.08
2022-08-27T21:25:07.436Z,21.13
2022-08-27T21:27:56.777Z,21.13
2022-08-27T21:30:45.070Z,21.12
2022-08-27T21:33:34.062Z,21.13
2022-08-27T21:36:26.709Z,21.11
2022-08-27T21:39:14.067Z,21.11
2022-08-27T21:42:02.059Z,21.06
2022-08-27T21:44:49.485Z,21.09
2022-08-27T21:47:36.880Z,21.04
2022-08-27T21:50:25.629Z,21.05
2022-08-27T21:53:12.973Z,21.05
2022-08-27T21:56:00.241Z,21.06
2022-08-27T21:58:47.509Z,21.08
2022-08-27T22:01:34.801Z,21.05
2022-08-27T22:04:22.409Z,21.01
2022-08-27T22:07:10.965Z,21.01
2022-08-27T22:09:58.285Z,21.01
2022-08-27T22:12:45.590Z,21.00
2022-08-27T22:15:33.224Z,20.99
2022-08-27T22:18:23.049Z,20.99
2022-08-27T22:21:11.518Z,20.95
2022-08-27T22:23:59.371Z,20.98
2022-08-27T22:26:46.689Z,20.98
2022-08-27T22:29:34.097Z,21.01
2022-08-27T22:32:21.341Z,21.00
2022-08-27T22:35:10.041Z,21.03
2022-08-27T22:37:57.374Z,20.98
2022-08-27T22:40:45.721Z,20.96
2022-08-27T22:43:35.457Z,20.95
2022-08-27T22:46:22.743Z,20.93
2022-08-27T22:49:10.148Z,20.94
2022-08-27T22:51:57.420Z,20.95
2022-08-27T22:54:44.736Z,20.96
2022-08-27T22:57:32.160Z,20.94
2022-08-27T23:00:35.577Z,20.90
2022-08-27T23:03:23.035Z,20.92
2022-08-27T23:06:10.371Z,20.91
2022-08-27T23:08:57.804Z,20.91
2022-08-27T23:11:45.136Z,20.87
2022-08-27T23:14:33.286Z,20.86
2022-08-27T23:17:21.403Z,20.87
2022-08-27T23:20:10.778Z,20.85
2022-08-27T23:22:58.030Z,20.84
2022-08-27T23:26:03.693Z,20.79
2022-08-27T23:28:50.997Z,20.72
2022-08-27T23:31:38.800Z,20.70
2022-08-27T23:34:26.698Z,20.69
2022-08-27T23:37:13.989Z,20.72
2022-08-27T23:40:01.649Z,20.66
2022-08-27T23:42:49.503Z,20.65
2022-08-27T23:45:40.896Z,20.67
2022-08-27T23:48:28.353Z,20.69
2022-08-27T23:51:15.664Z,20.72
2022-08-27T23:54:02.990Z,20.74
2022-08-27T23:56:50.288Z,20.77
2022-08-27T23:59:37.792Z,20.72
